Time;durP1;ratioP1;P1;durP2;ratioP2;P2;SDS_P1;SDS_P2;PMS_P1;PMS_P2;Temp;Humidity;BMP_temperature;BMP_pressure;BME280_temperature;BME280_humidity;BME280_pressure;Samples;Min_cycle;Max_cycle;Signal;HPM_P1;HPM_P2
2023/05/22 00:01:25;;;;;;;34.38;22.33;;;16.40;96.30;;;;;;5016739;28;20044;-72
2023/05/22 00:03:51;;;;;;;30.35;22.40;;;16.50;96.30;;;;;;5011040;28;20046;-73
2023/05/22 00:06:17;;;;;;;34.50;22.35;;;16.50;96.30;;;;;;5011376;28;20448;-72
2023/05/22 00:08:43;;;;;;;32.28;21.58;;;16.40;96.30;;;;;;5011243;28;20050;-72
2023/05/22 00:11:09;;;;;;;31.80;21.85;;;16.50;96.20;;;;;;5026450;28;20088;-73
2023/05/22 00:13:34;;;;;;;36.80;23.00;;;16.50;96.20;;;;;;5029480;28;20572;-72
2023/05/22 00:16:00;;;;;;;31.48;22.05;;;16.50;96.20;;;;;;5031741;28;20087;-72
2023/05/22 00:18:26;;;;;;;31.65;21.08;;;16.50;96.20;;;;;;4999167;28;20045;-72
2023/05/22 00:20:52;;;;;;;32.88;22.05;;;16.50;96.10;;;;;;5000859;28;20061;-72
2023/05/22 00:23:18;;;;;;;33.55;21.38;;;16.50;96.10;;;;;;5021763;28;20034;-73
2023/05/22 00:25:43;;;;;;;33.95;22.83;;;16.60;96.10;;;;;;5004190;28;20048;-72
2023/05/22 00:28:10;;;;;;;36.58;23.98;;;16.50;96.20;;;;;;5006062;28;21097;-72
2023/05/22 00:30:36;;;;;;;33.85;21.90;;;16.50;96.50;;;;;;5023784;28;20053;-73
2023/05/22 00:33:02;;;;;;;34.17;22.85;;;16.50;96.60;;;;;;5024052;28;20041;-73
2023/05/22 00:35:28;;;;;;;38.25;24.83;;;16.40;96.90;;;;;;5015618;28;20083;-73
2023/05/22 00:37:54;;;;;;;33.05;22.52;;;16.30;97.70;;;;;;5025966;28;20049;-73
2023/05/22 00:40:20;;;;;;;34.75;21.92;;;16.30;97.80;;;;;;5006222;28;20112;-74
2023/05/22 00:42:46;;;;;;;36.75;24.15;;;16.30;98.00;;;;;;5002450;28;20064;-74
2023/05/22 00:45:15;;;;;;;36.92;22.77;;;16.30;98.10;;;;;;5021054;28;20034;-74
2023/05/22 00:47:41;;;;;;;36.85;24.42;;;16.30;98.40;;;;;;5018514;28;20042;-75
2023/05/22 00:50:09;;;;;;;35.17;23.67;;;16.30;98.60;;;;;;5017490;28;20103;-73
2023/05/22 00:52:40;;;;;;;35.38;23.63;;;16.20;98.70;;;;;;5025470;28;20038;-74
2023/05/22 00:55:07;;;;;;;35.45;23.88;;;16.20;99.10;;;;;;5009993;28;20076;-74
2023/05/22 00:57:33;;;;;;;33.35;23.45;;;16.20;99.20;;;;;;5010476;28;20100;-75
2023/05/22 01:00:01;;;;;;;32.28;21.98;;;16.20;99.30;;;;;;5010706;28;20409;-75
2023/05/22 01:02:31;;;;;;;32.40;22.02;;;16.20;99.40;;;;;;5019477;28;20511;-73
2023/05/22 01:04:57;;;;;;;32.75;22.77;;;16.20;99.80;;;;;;5028417;28;20099;-74
2023/05/22 01:07:23;;;;;;;33.15;22.98;;;16.20;99.50;;;;;;5029743;28;20504;-75
2023/05/22 01:09:51;;;;;;;32.58;21.73;;;16.20;99.60;;;;;;5008131;28;20053;-74
2023/05/22 01:12:31;;;;;;;32.45;23.13;;;16.20;99.70;;;;;;5026409;28;20076;-75
2023/05/22 01:15:03;;;;;;;35.53;23.67;;;16.20;99.90;;;;;;5032332;28;20060;-74
2023/05/22 01:17:45;;;;;;;33.92;23.02;;;16.20;99.90;;;;;;5019252;28;20060;-74
2023/05/22 01:20:47;;;;;;;33.45;23.17;;;16.20;99.90;;;;;;5021825;28;20104;-75
2023/05/22 01:23:30;;;;;;;35.47;24.20;;;16.20;99.90;;;;;;5024058;28;20044;-75
2023/05/22 01:26:07;;;;;;;35.35;24.85;;;16.20;99.90;;;;;;5018211;28;20102;-74
2023/05/22 01:28:58;;;;;;;31.77;21.77;;;16.20;99.90;;;;;;5019839;28;20473;-74
2023/05/22 01:31:28;;;;;;;36.10;24.15;;;16.20;99.90;;;;;;5003365;28;20037;-75
2023/05/22 01:33:55;;;;;;;34.83;24.90;;;16.20;99.90;;;;;;5019283;28;20042;-75
2023/05/22 01:36:25;;;;;;;33.63;22.63;;;16.20;99.90;;;;;;5021602;28;20026;-75
2023/05/22 01:38:52;;;;;;;33.97;22.95;;;16.10;99.90;;;;;;5018704;28;20540;-75
2023/05/22 01:41:20;;;;;;;36.50;23.95;;;16.20;99.90;;;;;;5002817;28;20085;-74
2023/05/22 01:43:46;;;;;;;38.13;25.05;;;16.20;99.90;;;;;;5036639;28;20088;-75
2023/05/22 01:46:11;;;;;;;37.38;23.73;;;16.20;99.90;;;;;;5020472;28;20611;-76
2023/05/22 01:48:37;;;;;;;37.50;24.92;;;16.20;99.90;;;;;;5019821;28;20037;-76
2023/05/22 01:51:22;;;;;;;38.92;25.38;;;16.20;99.90;;;;;;5020954;28;20090;-76
2023/05/22 01:54:17;;;;;;;40.83;26.40;;;16.20;99.90;;;;;;5024235;28;20107;-76
2023/05/22 01:56:58;;;;;;;36.60;25.23;;;16.20;99.90;;;;;;5004665;28;20046;-76
2023/05/22 01:59:47;;;;;;;38.35;25.60;;;16.20;99.90;;;;;;5012164;28;20129;-76
2023/05/22 02:02:16;;;;;;;34.72;23.88;;;16.20;99.90;;;;;;5017717;28;20035;-75
2023/05/22 02:04:45;;;;;;;33.65;23.20;;;16.20;99.90;;;;;;5015972;28;20033;-75
2023/05/22 02:07:12;;;;;;;38.05;25.20;;;16.20;99.90;;;;;;5024043;28;20485;-75
2023/05/22 02:09:39;;;;;;;36.22;23.92;;;16.20;99.90;;;;;;5027180;28;20516;-73
2023/05/22 02:12:05;;;;;;;37.13;25.65;;;16.10;99.90;;;;;;5010989;28;20044;-75
2023/05/22 02:14:31;;;;;;;41.60;24.90;;;16.20;99.90;;;;;;5014559;28;20042;-75
2023/05/22 02:16:57;;;;;;;34.30;23.23;;;16.10;99.90;;;;;;5022548;28;20038;-75
2023/05/22 02:19:23;;;;;;;34.45;24.13;;;16.20;99.90;;;;;;5029192;28;20527;-74
2023/05/22 02:21:48;;;;;;;38.55;24.45;;;16.10;99.90;;;;;;5012007;28;20034;-75
2023/05/22 02:24:14;;;;;;;33.65;24.17;;;16.10;99.90;;;;;;4992204;28;20516;-75
2023/05/22 02:26:41;;;;;;;38.97;25.42;;;16.20;99.90;;;;;;5021380;28;20497;-73
2023/05/22 02:29:07;;;;;;;40.03;26.55;;;16.20;99.90;;;;;;5018609;28;20048;-73
2023/05/22 02:31:32;;;;;;;35.90;24.27;;;16.10;99.90;;;;;;5024772;28;20042;-74
2023/05/22 02:33:58;;;;;;;37.63;25.23;;;16.10;99.90;;;;;;5024769;28;20038;-74
2023/05/22 02:36:25;;;;;;;37.30;23.60;;;16.10;99.90;;;;;;5028628;28;20134;-74
2023/05/22 02:38:50;;;;;;;37.60;24.98;;;16.10;99.90;;;;;;5032298;28;20041;-73
2023/05/22 02:41:17;;;;;;;40.22;26.08;;;16.10;99.90;;;;;;5025215;28;20056;-73
2023/05/22 02:43:42;;;;;;;37.15;24.95;;;16.10;99.90;;;;;;5029185;28;20092;-74
2023/05/22 02:46:08;;;;;;;35.30;24.60;;;16.10;99.90;;;;;;5022165;28;20038;-74
2023/05/22 02:48:33;;;;;;;37.55;24.90;;;16.00;99.90;;;;;;5029495;28;20049;-74
2023/05/22 02:50:59;;;;;;;33.78;24.90;;;16.10;99.90;;;;;;5004298;28;20072;-74
2023/05/22 02:53:25;;;;;;;34.03;23.40;;;16.10;99.90;;;;;;5028835;28;20038;-74
2023/05/22 02:55:52;;;;;;;36.28;24.33;;;16.10;99.90;;;;;;5015345;28;20107;-73
2023/05/22 02:58:18;;;;;;;35.38;24.38;;;16.10;99.90;;;;;;5024008;28;20041;-73
2023/05/22 03:00:44;;;;;;;33.20;23.88;;;16.10;99.90;;;;;;5015385;28;20033;-74
2023/05/22 03:03:10;;;;;;;35.10;23.48;;;16.10;99.90;;;;;;5025519;28;20060;-73
2023/05/22 03:05:35;;;;;;;38.53;24.70;;;16.10;99.90;;;;;;5019707;28;20072;-73
2023/05/22 03:08:01;;;;;;;35.42;23.73;;;16.10;99.90;;;;;;5031332;28;20073;-73
2023/05/22 03:10:27;;;;;;;36.60;24.73;;;16.10;99.90;;;;;;5028725;28;20045;-73
2023/05/22 03:12:52;;;;;;;39.03;26.33;;;16.10;99.90;;;;;;5023454;28;20048;-73
2023/05/22 03:15:18;;;;;;;34.72;24.63;;;16.10;99.90;;;;;;5028931;28;20041;-73
2023/05/22 03:17:43;;;;;;;34.08;24.02;;;16.00;99.90;;;;;;5023155;28;20033;-74
2023/05/22 03:20:09;;;;;;;36.20;24.40;;;16.00;99.90;;;;;;5026976;28;20072;-73
2023/05/22 03:22:35;;;;;;;36.63;23.65;;;16.10;99.90;;;;;;5014999;28;20087;-73
2023/05/22 03:25:01;;;;;;;39.70;25.45;;;16.00;99.90;;;;;;5019760;28;20030;-73
2023/05/22 03:27:26;;;;;;;38.33;24.85;;;16.00;99.90;;;;;;5029124;28;20045;-74
2023/05/22 03:29:52;;;;;;;41.90;25.15;;;16.00;99.90;;;;;;5032057;28;20567;-73
2023/05/22 03:32:18;;;;;;;38.63;25.25;;;16.00;99.90;;;;;;5030667;28;20029;-73
2023/05/22 03:34:43;;;;;;;34.88;24.48;;;16.00;99.90;;;;;;5026455;28;20070;-73
2023/05/22 03:37:09;;;;;;;37.30;25.25;;;16.00;99.90;;;;;;5024205;28;20124;-73
2023/05/22 03:39:35;;;;;;;40.67;25.67;;;16.00;99.90;;;;;;5028084;28;20030;-73
2023/05/22 03:42:01;;;;;;;39.38;24.88;;;16.00;99.90;;;;;;5005017;28;20050;-73
2023/05/22 03:44:26;;;;;;;40.33;25.90;;;16.00;99.90;;;;;;5026627;28;20103;-73
2023/05/22 03:46:52;;;;;;;36.38;25.80;;;16.00;99.90;;;;;;5027886;28;20037;-72
2023/05/22 03:49:18;;;;;;;36.10;24.13;;;16.00;99.90;;;;;;5005981;28;20046;-73
2023/05/22 03:51:43;;;;;;;39.60;25.48;;;16.00;99.90;;;;;;5022855;28;20045;-73
2023/05/22 03:54:09;;;;;;;38.05;26.60;;;16.00;99.90;;;;;;5017885;28;20473;-72
2023/05/22 03:56:35;;;;;;;37.80;25.02;;;16.00;99.90;;;;;;5022534;28;20045;-73
2023/05/22 03:59:00;;;;;;;34.95;24.77;;;16.00;99.90;;;;;;5020020;28;20034;-73
2023/05/22 04:01:26;;;;;;;40.90;26.02;;;16.00;99.90;;;;;;5024036;28;20037;-72
2023/05/22 04:03:52;;;;;;;36.90;24.63;;;16.00;99.90;;;;;;5022748;28;20553;-73
2023/05/22 04:06:20;;;;;;;35.60;25.45;;;16.00;99.90;;;;;;5025556;28;20124;-73
2023/05/22 04:08:49;;;;;;;38.30;26.08;;;16.00;99.90;;;;;;5008007;28;20674;-72
2023/05/22 04:11:15;;;;;;;36.08;25.35;;;16.00;99.90;;;;;;5022390;28;20060;-73
2023/05/22 04:13:42;;;;;;;39.05;24.70;;;16.00;99.90;;;;;;5020112;28;20042;-74
2023/05/22 04:16:07;;;;;;;39.05;25.80;;;16.00;99.90;;;;;;4999391;28;20539;-74
2023/05/22 04:18:33;;;;;;;36.60;24.05;;;16.10;99.90;;;;;;5030829;28;20025;-73
2023/05/22 04:20:59;;;;;;;37.38;24.67;;;16.10;99.90;;;;;;5018130;28;20137;-74
2023/05/22 04:23:25;;;;;;;35.40;23.33;;;16.10;99.90;;;;;;5025573;28;20041;-73
2023/05/22 04:25:50;;;;;;;35.08;24.33;;;16.20;99.90;;;;;;5010590;28;20462;-73
2023/05/22 04:28:16;;;;;;;36.30;24.90;;;16.20;99.90;;;;;;5005518;28;20131;-73
2023/05/22 04:30:42;;;;;;;34.22;24.80;;;16.20;99.90;;;;;;5019089;28;20490;-73
2023/05/22 04:33:09;;;;;;;34.53;22.98;;;16.20;99.90;;;;;;5022763;28;20060;-74
2023/05/22 04:35:34;;;;;;;33.50;22.90;;;16.30;99.90;;;;;;5015691;28;20033;-72
2023/05/22 04:38:05;;;;;;;31.35;21.95;;;16.30;99.90;;;;;;5003521;28;20041;-74
2023/05/22 04:40:32;;;;;;;;;;;16.30;99.90;;;;;;5027438;28;20053;-75
2023/05/22 04:43:02;;;;;;;33.53;21.05;;;16.30;99.90;;;;;;5023649;28;19917;-74
2023/05/22 04:45:28;;;;;;;32.60;22.05;;;16.30;99.90;;;;;;5026549;28;20046;-73
2023/05/22 04:47:54;;;;;;;33.42;22.98;;;16.30;99.90;;;;;;5011041;28;20058;-72
2023/05/22 04:50:20;;;;;;;31.90;21.35;;;16.40;99.90;;;;;;5022497;28;20112;-74
2023/05/22 04:52:46;;;;;;;32.70;23.55;;;16.40;99.90;;;;;;5020346;28;20136;-73
2023/05/22 04:55:13;;;;;;;35.45;22.75;;;16.40;99.90;;;;;;5022377;28;20041;-73
2023/05/22 04:57:43;;;;;;;30.23;21.58;;;16.40;99.90;;;;;;5026475;28;20037;-73
2023/05/22 05:00:09;;;;;;;30.42;21.77;;;16.40;99.90;;;;;;4993170;28;20042;-73
2023/05/22 05:02:35;;;;;;;30.58;21.75;;;16.50;99.90;;;;;;5024598;28;20045;-74
2023/05/22 05:05:00;;;;;;;34.38;23.63;;;16.50;99.90;;;;;;5007548;28;20037;-73
2023/05/22 05:07:26;;;;;;;35.67;21.65;;;16.50;99.90;;;;;;5023869;28;20042;-73
2023/05/22 05:09:52;;;;;;;31.92;22.90;;;16.50;99.90;;;;;;5020106;28;20049;-73
2023/05/22 05:12:17;;;;;;;33.38;22.77;;;16.60;99.90;;;;;;5017221;28;20064;-74
2023/05/22 05:14:46;;;;;;;29.27;21.25;;;16.60;99.90;;;;;;5022052;28;20128;-73
2023/05/22 05:17:13;;;;;;;30.95;22.15;;;16.60;99.90;;;;;;5003797;28;20065;-72
2023/05/22 05:19:39;;;;;;;33.75;23.20;;;16.60;99.90;;;;;;5037182;28;20441;-73
2023/05/22 05:22:04;;;;;;;35.85;21.98;;;16.60;99.90;;;;;;5021530;28;20088;-73
2023/05/22 05:24:30;;;;;;;31.65;22.70;;;16.60;99.90;;;;;;5020000;28;20499;-72
2023/05/22 05:26:56;;;;;;;31.35;22.65;;;16.70;99.90;;;;;;5021867;28;20298;-72
2023/05/22 05:29:21;;;;;;;36.03;23.05;;;16.60;99.90;;;;;;5017713;28;20029;-71
2023/05/22 05:31:47;;;;;;;32.40;23.48;;;16.70;99.90;;;;;;5018461;28;20057;-73
2023/05/22 05:34:12;;;;;;;32.85;24.17;;;16.60;99.90;;;;;;5027829;28;20045;-72
2023/05/22 05:36:39;;;;;;;35.17;24.30;;;16.60;99.90;;;;;;5012385;28;20041;-72
2023/05/22 05:39:05;;;;;;;37.00;24.50;;;16.60;99.90;;;;;;5004827;28;20040;-73
2023/05/22 05:41:31;;;;;;;34.50;23.50;;;16.60;99.90;;;;;;5016095;28;20049;-72
2023/05/22 05:43:58;;;;;;;35.72;24.30;;;16.60;99.90;;;;;;5019006;28;20049;-71
2023/05/22 05:46:24;;;;;;;35.90;25.48;;;16.60;99.90;;;;;;5017864;28;20469;-73
2023/05/22 05:48:50;;;;;;;35.47;24.73;;;16.50;99.90;;;;;;5013364;28;20124;-73
2023/05/22 05:51:16;;;;;;;37.55;24.58;;;16.50;99.90;;;;;;5023163;28;20128;-73
2023/05/22 05:53:42;;;;;;;32.13;22.70;;;16.50;99.90;;;;;;5011479;28;20120;-72
2023/05/22 05:56:08;;;;;;;38.13;25.77;;;16.50;99.90;;;;;;5021433;28;20049;-74
2023/05/22 05:58:33;;;;;;;34.72;24.98;;;16.60;99.90;;;;;;5003173;28;20045;-73
2023/05/22 06:00:59;;;;;;;35.13;24.17;;;16.60;99.90;;;;;;5030231;28;20053;-73
2023/05/22 06:03:25;;;;;;;35.63;23.50;;;16.60;99.90;;;;;;5015285;28;20478;-73
2023/05/22 06:05:51;;;;;;;34.05;23.25;;;16.50;99.90;;;;;;5020570;28;20037;-73
2023/05/22 06:08:18;;;;;;;36.38;24.88;;;16.60;99.90;;;;;;5004535;28;20073;-74
2023/05/22 06:10:45;;;;;;;38.28;24.00;;;16.50;99.90;;;;;;5032196;28;20604;-73
2023/05/22 06:13:10;;;;;;;37.83;23.40;;;16.50;99.90;;;;;;5035634;28;20128;-74
2023/05/22 06:15:36;;;;;;;35.17;23.60;;;16.50;99.90;;;;;;5002450;28;20132;-73
2023/05/22 06:18:01;;;;;;;37.25;24.08;;;16.50;99.90;;;;;;5014374;28;20057;-74
2023/05/22 06:20:27;;;;;;;35.67;24.42;;;16.50;99.90;;;;;;5017026;28;20037;-73
2023/05/22 06:22:52;;;;;;;38.45;25.50;;;16.50;99.90;;;;;;5025314;28;20129;-74
2023/05/22 06:25:19;;;;;;;37.30;26.45;;;16.40;99.90;;;;;;5027800;28;20030;-74
2023/05/22 06:27:44;;;;;;;37.90;24.48;;;16.40;99.90;;;;;;5015343;28;20078;-73
2023/05/22 06:30:11;;;;;;;34.92;24.73;;;16.40;99.90;;;;;;4998669;28;20439;-74
2023/05/22 06:32:36;;;;;;;38.10;24.92;;;16.40;99.90;;;;;;5026335;28;20045;-73
2023/05/22 06:35:02;;;;;;;41.55;26.25;;;16.40;99.90;;;;;;5028202;28;20490;-75
2023/05/22 06:37:28;;;;;;;34.67;24.55;;;16.40;99.90;;;;;;5024999;28;20045;-74
2023/05/22 06:39:53;;;;;;;36.05;23.95;;;16.40;99.90;;;;;;5012231;28;20038;-74
2023/05/22 06:42:19;;;;;;;38.22;25.77;;;16.40;99.90;;;;;;5015270;28;20108;-75
2023/05/22 06:44:45;;;;;;;37.80;23.85;;;16.40;99.90;;;;;;5022182;28;20068;-74
2023/05/22 06:47:11;;;;;;;38.25;23.75;;;16.30;99.90;;;;;;5013018;28;20106;-74
2023/05/22 06:49:37;;;;;;;37.33;24.77;;;16.30;99.90;;;;;;5031794;28;20041;-74
2023/05/22 06:52:03;;;;;;;34.20;24.13;;;16.30;99.90;;;;;;5027508;28;20065;-74
2023/05/22 06:54:28;;;;;;;39.00;23.27;;;16.30;99.90;;;;;;5028618;28;20034;-74
2023/05/22 06:56:55;;;;;;;37.35;24.27;;;16.30;99.90;;;;;;5013669;28;20038;-75
2023/05/22 06:59:21;;;;;;;33.55;22.45;;;16.30;99.90;;;;;;5014520;28;20044;-74
2023/05/22 07:01:47;;;;;;;38.55;24.50;;;16.30;99.90;;;;;;5016828;28;20811;-75
2023/05/22 07:04:14;;;;;;;33.63;22.33;;;16.30;99.90;;;;;;5014208;28;20048;-75
2023/05/22 07:06:40;;;;;;;34.78;23.92;;;16.30;99.90;;;;;;5010386;28;20033;-73
2023/05/22 07:09:07;;;;;;;30.38;22.17;;;16.30;99.90;;;;;;5018043;28;20069;-73
2023/05/22 07:11:34;;;;;;;32.70;21.90;;;16.30;99.90;;;;;;5030517;28;20088;-75
2023/05/22 07:14:01;;;;;;;29.42;21.10;;;16.30;99.90;;;;;;5031250;28;20053;-75
2023/05/22 07:16:26;;;;;;;33.28;21.05;;;16.30;99.90;;;;;;5028073;28;20049;-74
2023/05/22 07:18:54;;;;;;;31.10;21.67;;;16.40;99.90;;;;;;5011410;28;20042;-75
2023/05/22 07:21:22;;;;;;;30.85;20.77;;;16.40;99.90;;;;;;5016198;28;20083;-75
2023/05/22 07:23:48;;;;;;;31.80;21.67;;;16.60;99.90;;;;;;5011845;28;20053;-74
2023/05/22 07:26:14;;;;;;;34.60;21.85;;;16.70;99.90;;;;;;5010759;28;20049;-74
2023/05/22 07:28:39;;;;;;;32.47;20.45;;;16.80;99.90;;;;;;5022510;28;20029;-74
2023/05/22 07:31:05;;;;;;;25.73;18.35;;;17.10;99.90;;;;;;5011030;28;20393;-73
2023/05/22 07:33:30;;;;;;;29.90;20.00;;;17.30;99.50;;;;;;5018354;28;20041;-73
2023/05/22 07:35:56;;;;;;;28.65;18.65;;;17.50;99.10;;;;;;5026665;28;20061;-74
2023/05/22 07:38:22;;;;;;;24.73;16.70;;;17.60;98.60;;;;;;5015960;28;20519;-74
2023/05/22 07:40:47;;;;;;;24.60;17.10;;;17.80;97.90;;;;;;5014571;28;20061;-74
2023/05/22 07:43:14;;;;;;;24.25;16.33;;;18.00;97.40;;;;;;5005401;28;20095;-73
2023/05/22 07:45:41;;;;;;;22.35;15.27;;;18.20;96.80;;;;;;5032386;28;20041;-73
2023/05/22 07:48:06;;;;;;;22.75;15.68;;;18.40;96.10;;;;;;5031795;28;20487;-74
2023/05/22 07:50:32;;;;;;;20.67;14.75;;;18.50;95.50;;;;;;5032052;28;20038;-73
2023/05/22 07:52:58;;;;;;;20.92;14.38;;;18.60;95.00;;;;;;5030030;28;20469;-74
2023/05/22 07:55:23;;;;;;;22.50;15.20;;;18.60;94.30;;;;;;5014866;28;20037;-74
2023/05/22 07:57:49;;;;;;;19.65;14.15;;;18.60;93.90;;;;;;5030705;28;20047;-74
2023/05/22 08:00:15;;;;;;;19.90;14.05;;;18.50;93.50;;;;;;5026745;28;20038;-74
2023/05/22 08:02:41;;;;;;;19.65;13.57;;;18.50;93.20;;;;;;5011683;28;20092;-74
2023/05/22 08:05:08;;;;;;;20.05;13.65;;;18.40;93.00;;;;;;4995505;28;20482;-75
2023/05/22 08:07:33;;;;;;;20.23;14.18;;;18.30;92.70;;;;;;5025157;28;20577;-73
2023/05/22 08:10:02;;;;;;;20.92;13.27;;;18.20;92.70;;;;;;5029601;28;20124;-74
2023/05/22 08:12:28;;;;;;;19.40;13.63;;;18.10;92.50;;;;;;5028303;28;20045;-73
2023/05/22 08:14:54;;;;;;;17.45;13.38;;;18.00;92.70;;;;;;5030606;28;20049;-74
2023/05/22 08:17:19;;;;;;;20.35;13.90;;;17.90;92.80;;;;;;5027593;28;20155;-74
2023/05/22 08:19:45;;;;;;;15.20;12.45;;;17.80;92.80;;;;;;5039986;28;20037;-73
2023/05/22 08:22:10;;;;;;;20.48;13.07;;;17.80;92.80;;;;;;5026399;28;20091;-74
2023/05/22 08:24:36;;;;;;;19.30;13.52;;;17.70;92.90;;;;;;5013669;28;20088;-74
2023/05/22 08:27:01;;;;;;;24.02;14.18;;;17.70;92.90;;;;;;5027603;28;20144;-75
2023/05/22 08:29:27;;;;;;;22.75;14.18;;;17.70;93.00;;;;;;5029059;28;20062;-73
2023/05/22 08:31:55;;;;;;;18.55;13.48;;;17.80;93.00;;;;;;5024737;28;20041;-73
2023/05/22 08:34:21;;;;;;;17.08;13.48;;;17.80;92.90;;;;;;5028901;28;20046;-73
2023/05/22 08:36:47;;;;;;;18.48;13.20;;;17.90;92.70;;;;;;5022094;28;20046;-74
2023/05/22 08:39:13;;;;;;;22.83;12.88;;;18.00;92.50;;;;;;5009044;28;20037;-74
2023/05/22 08:41:39;;;;;;;17.73;12.77;;;18.10;92.30;;;;;;5022521;28;20073;-74
2023/05/22 08:44:04;;;;;;;18.85;12.98;;;18.10;92.20;;;;;;5011467;28;20042;-74
2023/05/22 08:46:36;;;;;;;18.27;12.63;;;18.20;92.00;;;;;;5003906;28;20405;-74
2023/05/22 08:49:03;;;;;;;17.02;12.80;;;18.30;91.90;;;;;;5025851;28;20050;-74
2023/05/22 08:51:33;;;;;;;17.70;12.10;;;18.30;92.10;;;;;;5020444;28;20385;-73
2023/05/22 08:54:00;;;;;;;20.40;13.60;;;18.30;91.60;;;;;;5013650;28;20041;-74
2023/05/22 08:56:26;;;;;;;17.83;12.40;;;18.40;91.70;;;;;;5026655;28;20041;-73
2023/05/22 08:58:53;;;;;;;16.48;12.10;;;18.40;91.70;;;;;;5022700;28;21145;-73
2023/05/22 09:01:19;;;;;;;18.42;13.15;;;18.40;91.70;;;;;;5018973;28;20030;-73
2023/05/22 09:03:48;;;;;;;20.63;12.05;;;18.50;91.60;;;;;;5023949;28;20044;-73
2023/05/22 09:06:13;;;;;;;17.40;12.50;;;18.60;91.40;;;;;;5010174;28;20049;-73
2023/05/22 09:08:41;;;;;;;21.45;12.60;;;18.60;91.30;;;;;;5018322;28;20029;-73
2023/05/22 09:11:07;;;;;;;19.85;11.20;;;18.70;91.00;;;;;;4998589;28;20595;-73
2023/05/22 09:13:32;;;;;;;21.25;12.35;;;18.70;90.90;;;;;;5016174;28;20171;-73
2023/05/22 09:16:10;;;;;;;20.10;11.40;;;18.80;90.80;;;;;;5013809;28;20524;-74
2023/05/22 09:18:40;;;;;;;16.63;11.10;;;18.80;90.70;;;;;;4997274;28;20548;-73
2023/05/22 09:21:07;;;;;;;16.10;10.88;;;19.00;90.50;;;;;;5015717;28;20040;-73
2023/05/22 09:23:33;;;;;;;19.98;11.65;;;19.00;90.40;;;;;;4998542;28;20422;-73
2023/05/22 09:26:00;;;;;;;20.27;10.27;;;19.10;90.30;;;;;;5016507;28;20128;-73
2023/05/22 09:28:26;;;;;;;18.25;9.57;;;19.20;90.10;;;;;;5019386;28;20541;-73
2023/05/22 09:30:53;;;;;;;19.90;9.73;;;19.20;90.00;;;;;;5015499;28;20049;-73
2023/05/22 09:33:21;;;;;;;19.15;9.90;;;19.20;89.90;;;;;;5017500;28;20037;-73
2023/05/22 09:35:47;;;;;;;16.42;10.20;;;19.30;89.70;;;;;;4998825;28;20640;-74
2023/05/22 09:38:13;;;;;;;17.13;10.30;;;19.40;89.40;;;;;;5003309;28;20520;-74
2023/05/22 09:40:39;;;;;;;18.63;9.88;;;19.40;89.20;;;;;;5015917;28;20053;-73
2023/05/22 09:43:16;;;;;;;18.70;10.40;;;19.40;89.10;;;;;;5016627;28;20046;-73
2023/05/22 09:45:42;;;;;;;25.15;11.95;;;19.40;88.80;;;;;;5016632;28;20053;-74
2023/05/22 09:48:09;;;;;;;18.55;10.23;;;19.50;88.70;;;;;;5018267;28;20037;-73
2023/05/22 09:50:35;;;;;;;19.15;10.90;;;19.40;88.50;;;;;;5019927;28;20045;-73
2023/05/22 09:53:02;;;;;;;23.98;11.52;;;19.40;88.20;;;;;;5018904;28;20045;-74
2023/05/22 09:55:29;;;;;;;21.85;10.45;;;19.40;88.20;;;;;;4999251;28;20049;-74
2023/05/22 09:57:56;;;;;;;22.05;11.45;;;19.40;88.00;;;;;;5015452;28;20044;-74
2023/05/22 10:00:22;;;;;;;17.48;10.57;;;19.40;87.50;;;;;;5013144;28;20053;-73
2023/05/22 10:03:05;;;;;;;21.90;10.18;;;19.40;87.50;;;;;;5016506;28;20033;-74
2023/05/22 10:05:32;;;;;;;20.30;10.63;;;19.50;86.20;;;;;;5009634;28;20052;-74
2023/05/22 10:08:10;;;;;;;22.02;11.55;;;19.50;87.00;;;;;;5010165;28;20041;-73
2023/05/22 10:10:37;;;;;;;22.73;10.93;;;19.60;86.20;;;;;;5028553;28;20079;-74
2023/05/22 10:13:05;;;;;;;17.98;10.13;;;19.90;86.00;;;;;;5005400;28;20088;-74
2023/05/22 10:15:31;;;;;;;20.52;11.27;;;20.10;85.20;;;;;;5021813;28;20052;-74
2023/05/22 10:17:57;;;;;;;23.05;11.65;;;20.30;84.50;;;;;;5029734;28;20045;-75
2023/05/22 10:20:25;;;;;;;22.38;10.98;;;20.50;83.60;;;;;;5024542;28;20029;-74
2023/05/22 10:22:52;;;;;;;21.40;12.25;;;20.60;83.00;;;;;;5010034;28;20066;-75
2023/05/22 10:25:18;;;;;;;22.30;11.52;;;20.80;82.10;;;;;;5010853;28;20045;-74
2023/05/22 10:27:44;;;;;;;18.48;12.10;;;20.90;81.40;;;;;;5022010;28;20048;-73
2023/05/22 10:30:46;;;;;;;23.33;12.80;;;20.90;80.50;;;;;;5028935;28;20064;-76
2023/05/22 10:33:15;;;;;;;21.40;11.45;;;21.10;78.70;;;;;;5016515;28;20049;-76
2023/05/22 10:35:52;;;;;;;20.38;11.00;;;21.20;79.00;;;;;;5027238;28;20120;-77
2023/05/22 10:38:34;;;;;;;19.73;11.82;;;21.50;77.70;;;;;;5010899;28;20077;-76
2023/05/22 10:41:02;;;;;;;26.42;13.40;;;21.80;75.60;;;;;;5016583;28;20506;-79
2023/05/22 10:43:32;;;;;;;18.50;11.90;;;22.10;76.30;;;;;;5008452;28;20049;-79
2023/05/22 10:46:05;;;;;;;15.82;10.73;;;22.20;75.40;;;;;;5013064;28;20381;-78
2023/05/22 10:48:46;;;;;;;20.75;12.18;;;22.50;73.40;;;;;;5026437;28;20116;-76
2023/05/22 10:51:19;;;;;;;18.75;11.63;;;22.70;71.70;;;;;;5016879;28;20512;-77
2023/05/22 10:54:04;;;;;;;16.83;10.73;;;22.70;70.80;;;;;;5010779;28;20037;-80
2023/05/22 10:56:37;;;;;;;18.30;11.48;;;22.80;71.20;;;;;;5015263;28;20038;-79
2023/05/22 10:59:04;;;;;;;18.95;11.77;;;23.00;69.60;;;;;;5022587;28;20045;-80
2023/05/22 11:01:34;;;;;;;16.73;10.38;;;22.90;70.90;;;;;;5029178;28;20367;-82
2023/05/22 11:04:03;;;;;;;19.33;12.00;;;23.20;71.00;;;;;;5029314;28;20388;-81
2023/05/22 11:06:47;;;;;;;20.75;12.85;;;23.30;69.80;;;;;;5026351;28;20061;-83
2023/05/22 11:09:30;;;;;;;16.70;11.57;;;23.80;66.40;;;;;;5028805;28;20136;-83
2023/05/22 11:12:16;;;;;;;17.27;12.18;;;24.10;66.00;;;;;;5032603;28;20511;-82
2023/05/22 11:15:08;;;;;;;20.60;13.15;;;24.00;64.60;;;;;;5014978;28;20080;-80
2023/05/22 11:17:41;;;;;;;17.60;12.57;;;24.00;64.90;;;;;;5028906;28;20075;-77
2023/05/22 11:20:25;;;;;;;17.92;13.90;;;23.80;65.50;;;;;;5007224;28;20077;-78
2023/05/22 11:23:04;;;;;;;22.48;14.90;;;23.80;65.70;;;;;;5012458;28;20494;-81
2023/05/22 11:25:33;;;;;;;19.63;14.32;;;23.80;65.40;;;;;;5028609;28;20092;-78
2023/05/22 11:28:01;;;;;;;22.20;15.43;;;23.90;65.60;;;;;;5030705;28;20076;-86
2023/05/22 11:30:29;;;;;;;17.27;13.98;;;23.80;65.80;;;;;;5036157;28;20041;-86
2023/05/22 11:32:56;;;;;;;23.73;15.52;;;24.00;66.40;;;;;;5013784;28;20057;-80
2023/05/22 11:35:22;;;;;;;18.65;13.85;;;24.20;66.30;;;;;;5023988;28;20042;-85
2023/05/22 11:37:50;;;;;;;21.80;14.05;;;24.40;65.80;;;;;;5023474;28;21070;-83
2023/05/22 11:40:17;;;;;;;22.65;15.02;;;24.70;65.00;;;;;;5019486;28;20057;-81
2023/05/22 11:42:43;;;;;;;21.17;14.90;;;24.60;64.40;;;;;;5025912;28;20055;-83
2023/05/22 11:45:10;;;;;;;21.15;15.57;;;24.60;64.00;;;;;;5020727;28;20128;-77
2023/05/22 11:47:36;;;;;;;20.48;14.13;;;24.70;63.20;;;;;;5015853;28;20049;-84
2023/05/22 11:50:02;;;;;;;21.80;15.85;;;24.70;63.80;;;;;;5027957;28;20493;-83
2023/05/22 11:52:32;;;;;;;17.23;12.85;;;24.90;63.00;;;;;;5031950;28;20136;-83
2023/05/22 11:54:59;;;;;;;18.35;11.82;;;24.90;62.40;;;;;;5027751;28;20091;-85
2023/05/22 11:57:24;;;;;;;17.92;14.02;;;25.00;63.00;;;;;;5030007;28;20041;-78
2023/05/22 11:59:50;;;;;;;20.63;13.80;;;24.80;62.30;;;;;;5028115;28;20030;-76
2023/05/22 12:02:17;;;;;;;18.08;13.75;;;24.90;62.10;;;;;;5022241;28;20035;-76
2023/05/22 12:04:43;;;;;;;22.65;14.95;;;24.90;62.10;;;;;;5023526;28;20478;-78
2023/05/22 12:07:08;;;;;;;21.98;15.98;;;25.00;61.80;;;;;;5012282;28;20034;-83
2023/05/22 12:09:34;;;;;;;23.05;14.52;;;24.50;61.90;;;;;;4998213;28;20091;-73
2023/05/22 12:12:00;;;;;;;19.70;14.82;;;24.40;62.20;;;;;;5015055;28;20049;-80
2023/05/22 12:14:30;;;;;;;18.33;14.90;;;24.40;62.40;;;;;;5016027;28;20053;-77
2023/05/22 12:17:00;;;;;;;19.60;14.77;;;24.80;61.50;;;;;;5022522;28;20053;-80
2023/05/22 12:19:26;;;;;;;;;;;24.70;61.70;;;;;;5030483;28;20677;-79
2023/05/22 12:21:52;;;;;;;22.40;16.17;;;25.00;60.90;;;;;;5015848;28;19921;-77
2023/05/22 12:24:24;;;;;;;20.50;14.93;;;25.20;61.30;;;;;;5011413;28;20038;-76
2023/05/22 12:26:53;;;;;;;25.02;16.10;;;25.80;60.50;;;;;;5013623;28;20111;-76
2023/05/22 12:29:23;;;;;;;17.33;13.87;;;26.80;58.00;;;;;;5031937;28;20037;-78
2023/05/22 12:31:49;;;;;;;21.02;15.55;;;28.50;55.60;;;;;;5019638;28;20376;-76